Time;durP1;ratioP1;P1;durP2;ratioP2;P2;SDS_P1;SDS_P2;PMS_P1;PMS_P2;Temp;Humidity;BMP_temperature;BMP_pressure;BME280_temperature;BME280_humidity;BME280_pressure;Samples;Min_cycle;Max_cycle;Signal;HPM_P1;HPM_P2
2024/04/23 00:00:47;;;;;;;5.55;3.72;;;;;;;;;;5429543;26;20264;-72
2024/04/23 00:03:16;;;;;;;4.80;4.30;;;;;;;;;;5429104;26;20312;-71
2024/04/23 00:05:42;;;;;;;4.38;4.07;;;;;;;;;;5428339;26;20234;-72
2024/04/23 00:08:11;;;;;;;4.38;3.97;;;;;;;;;;5428577;26;20794;-72
2024/04/23 00:10:39;;;;;;;3.88;3.58;;;;;;;;;;5428599;26;20271;-73
2024/04/23 00:13:08;;;;;;;4.00;3.55;;;;;;;;;;5428170;26;20335;-72
2024/04/23 00:15:34;;;;;;;4.55;3.97;;;;;;;;;;5427139;26;20231;-72
2024/04/23 00:18:03;;;;;;;3.65;3.38;;;;;;;;;;5427891;26;20317;-72
2024/04/23 00:20:29;;;;;;;4.97;3.85;;;;;;;;;;5428444;26;20225;-73
2024/04/23 00:22:58;;;;;;;7.25;3.88;;;;;;;;;;5427268;26;20632;-72
2024/04/23 00:25:24;;;;;;;3.95;3.42;;;;;;;;;;5427094;26;20229;-72
2024/04/23 00:27:57;;;;;;;4.70;4.30;;;;;;;;;;5426484;26;20231;-73
2024/04/23 00:30:23;;;;;;;3.35;3.05;;;;;;;;;;5427851;26;20930;-72
2024/04/23 00:32:52;;;;;;;3.83;3.53;;;;;;;;;;5427665;26;20238;-73
2024/04/23 00:35:18;;;;;;;4.05;3.78;;;;;;;;;;5427896;26;20230;-72
2024/04/23 00:37:47;;;;;;;4.00;3.70;;;;;;;;;;5427698;26;20272;-72
2024/04/23 00:40:13;;;;;;;3.67;3.38;;;;;;;;;;5427049;26;20268;-73
2024/04/23 00:42:42;;;;;;;3.60;3.30;;;;;;;;;;5426258;26;20233;-71
2024/04/23 00:45:14;;;;;;;3.85;3.45;;;;;;;;;;5426424;26;20311;-72
2024/04/23 00:47:43;;;;;;;4.35;3.95;;;;;;;;;;5426071;26;20243;-72
2024/04/23 00:50:09;;;;;;;4.95;4.38;;;;;;;;;;5426884;26;20272;-72
2024/04/23 00:52:38;;;;;;;3.83;3.45;;;;;;;;;;5427481;26;20283;-72
2024/04/23 00:55:05;;;;;;;4.75;3.30;;;;;;;;;;5426607;26;20229;-72
2024/04/23 00:57:34;;;;;;;4.65;4.00;;;;;;;;;;5427279;26;20656;-72
2024/04/23 01:00:00;;;;;;;4.40;3.47;;;;;;;;;;5427693;26;20599;-72
2024/04/23 01:02:31;;;;;;;4.25;3.83;;;;;;;;;;5426571;26;20314;-71
2024/04/23 01:04:57;;;;;;;3.33;3.08;;;;;;;;;;5425670;26;20606;-71
2024/04/23 01:07:26;;;;;;;4.95;4.43;;;;;;;;;;5425090;26;20245;-72
2024/04/23 01:09:52;;;;;;;3.55;3.35;;;;;;;;;;5423327;26;20301;-71
2024/04/23 01:12:21;;;;;;;3.97;3.35;;;;;;;;;;5423234;26;20242;-70
2024/04/23 01:14:48;;;;;;;2.85;2.65;;;;;;;;;;5422722;26;20268;-72
2024/04/23 01:17:17;;;;;;;3.22;2.97;;;;;;;;;;5422044;26;20325;-71
2024/04/23 01:19:48;;;;;;;5.07;4.03;;;;;;;;;;5422981;26;20226;-71
2024/04/23 01:22:20;;;;;;;3.80;3.40;;;;;;;;;;5422727;26;20277;-71
2024/04/23 01:24:49;;;;;;;4.00;3.63;;;;;;;;;;5422376;26;20260;-71
2024/04/23 01:27:22;;;;;;;3.97;3.67;;;;;;;;;;5422490;26;20242;-71
2024/04/23 01:29:48;;;;;;;3.67;3.40;;;;;;;;;;5421825;26;20225;-71
2024/04/23 01:32:17;;;;;;;4.30;3.47;;;;;;;;;;5422798;26;20242;-71
2024/04/23 01:34:43;;;;;;;3.58;3.25;;;;;;;;;;5421669;26;20855;-71
2024/04/23 01:37:12;;;;;;;4.53;4.15;;;;;;;;;;5421861;26;20245;-71
2024/04/23 01:39:39;;;;;;;3.83;3.50;;;;;;;;;;5421135;26;20230;-71
2024/04/23 01:42:08;;;;;;;3.78;2.65;;;;;;;;;;5422069;26;20275;-71
2024/04/23 01:44:39;;;;;;;4.35;3.17;;;;;;;;;;5420962;26;20359;-71
2024/04/23 01:47:07;;;;;;;2.80;2.60;;;;;;;;;;5420859;26;20613;-71
2024/04/23 01:49:34;;;;;;;4.00;3.60;;;;;;;;;;5420846;26;20233;-71
2024/04/23 01:52:03;;;;;;;2.95;2.75;;;;;;;;;;5420742;26;20233;-71
2024/04/23 01:54:29;;;;;;;4.25;3.90;;;;;;;;;;5419968;26;20230;-71
2024/04/23 01:56:58;;;;;;;4.07;3.78;;;;;;;;;;5420212;26;20241;-71
2024/04/23 01:59:24;;;;;;;5.85;3.35;;;;;;;;;;5419992;26;20233;-71
2024/04/23 02:01:57;;;;;;;3.28;3.08;;;;;;;;;;5419839;26;20576;-71
2024/04/23 02:04:24;;;;;;;3.90;3.55;;;;;;;;;;5419900;26;20260;-71
2024/04/23 02:06:53;;;;;;;3.80;3.10;;;;;;;;;;5420173;26;20244;-71
2024/04/23 02:09:19;;;;;;;4.28;3.88;;;;;;;;;;5419696;26;20723;-71
2024/04/23 02:11:48;;;;;;;3.63;3.33;;;;;;;;;;5419318;26;20233;-71
2024/04/23 02:14:14;;;;;;;4.55;3.05;;;;;;;;;;5419701;26;20579;-71
2024/04/23 02:16:43;;;;;;;5.82;3.88;;;;;;;;;;5420341;26;20346;-71
2024/04/23 02:19:11;;;;;;;4.45;4.13;;;;;;;;;;5420687;26;20273;-71
2024/04/23 02:21:40;;;;;;;3.38;3.00;;;;;;;;;;5420537;26;20271;-71
2024/04/23 02:24:06;;;;;;;2.78;2.58;;;;;;;;;;5419662;26;20271;-71
2024/04/23 02:26:35;;;;;;;3.20;2.90;;;;;;;;;;5419812;26;20246;-71
2024/04/23 02:29:01;;;;;;;2.55;2.40;;;;;;;;;;5419638;26;20276;-71
2024/04/23 02:31:30;;;;;;;3.47;3.17;;;;;;;;;;5419970;26;20269;-70
2024/04/23 02:33:56;;;;;;;5.32;3.53;;;;;;;;;;5419565;26;20345;-70
2024/04/23 02:36:28;;;;;;;5.35;3.58;;;;;;;;;;5419172;26;20652;-71
2024/04/23 02:38:54;;;;;;;3.40;3.20;;;;;;;;;;5417916;26;20229;-71
2024/04/23 02:41:23;;;;;;;2.92;2.70;;;;;;;;;;5419157;26;20291;-71
2024/04/23 02:43:49;;;;;;;3.55;3.20;;;;;;;;;;5418962;26;20610;-71
2024/04/23 02:46:18;;;;;;;2.70;2.53;;;;;;;;;;5419185;26;20252;-71
2024/04/23 02:48:44;;;;;;;3.20;2.80;;;;;;;;;;5418900;26;20273;-71
2024/04/23 02:51:13;;;;;;;2.97;2.63;;;;;;;;;;5418312;26;20228;-71
2024/04/23 02:53:42;;;;;;;3.58;3.40;;;;;;;;;;5418275;26;20272;-71
2024/04/23 02:56:10;;;;;;;5.72;3.90;;;;;;;;;;5418869;26;20302;-70
2024/04/23 02:58:36;;;;;;;2.83;2.63;;;;;;;;;;5419503;26;20765;-71
2024/04/23 03:01:05;;;;;;;3.95;3.47;;;;;;;;;;5418431;26;20597;-71
2024/04/23 03:03:31;;;;;;;2.60;2.40;;;;;;;;;;5416043;26;20230;-71
2024/04/23 03:06:00;;;;;;;2.53;2.33;;;;;;;;;;5418337;26;20245;-70
2024/04/23 03:08:27;;;;;;;3.25;2.90;;;;;;;;;;5419080;26;20223;-71
2024/04/23 03:10:58;;;;;;;3.15;2.95;;;;;;;;;;5418952;26;20717;-71
2024/04/23 03:13:25;;;;;;;2.90;2.70;;;;;;;;;;5417871;26;20230;-71
2024/04/23 03:15:53;;;;;;;3.53;3.30;;;;;;;;;;5416979;26;20244;-71
2024/04/23 03:18:19;;;;;;;2.72;2.53;;;;;;;;;;5418151;26;20237;-71
2024/04/23 03:20:48;;;;;;;3.60;3.40;;;;;;;;;;5416296;26;20271;-71
2024/04/23 03:23:14;;;;;;;3.22;2.90;;;;;;;;;;5414958;26;20229;-71
2024/04/23 03:25:43;;;;;;;3.47;3.17;;;;;;;;;;5415344;26;20240;-71
2024/04/23 03:28:12;;;;;;;3.05;2.75;;;;;;;;;;5415430;26;20604;-71
2024/04/23 03:30:41;;;;;;;3.25;2.88;;;;;;;;;;5415024;26;20786;-71
2024/04/23 03:33:07;;;;;;;2.70;2.50;;;;;;;;;;5415712;26;20229;-71
2024/04/23 03:35:36;;;;;;;3.10;2.90;;;;;;;;;;5415561;26;20338;-71
2024/04/23 03:38:05;;;;;;;5.10;3.13;;;;;;;;;;5415176;26;20267;-71
2024/04/23 03:40:34;;;;;;;3.05;2.85;;;;;;;;;;5415285;26;20315;-71
2024/04/23 03:43:02;;;;;;;4.72;3.00;;;;;;;;;;5415381;26;20222;-71
2024/04/23 03:45:34;;;;;;;2.75;2.45;;;;;;;;;;5414989;26;20267;-71
2024/04/23 03:48:02;;;;;;;4.30;3.20;;;;;;;;;;5415013;26;20225;-71
2024/04/23 03:50:29;;;;;;;2.97;2.47;;;;;;;;;;5416189;26;20224;-71
2024/04/23 03:52:57;;;;;;;2.83;2.55;;;;;;;;;;5417518;26;20232;-71
2024/04/23 03:55:24;;;;;;;3.88;3.22;;;;;;;;;;5418030;26;20223;-70
2024/04/23 03:57:55;;;;;;;3.67;3.42;;;;;;;;;;5417871;26;20228;-71
2024/04/23 04:00:21;;;;;;;3.38;2.95;;;;;;;;;;5417857;26;20224;-71
2024/04/23 04:08:22;;;;;;;4.00;3.35;;;;;;;;;;5420387;26;20786;-71
2024/04/23 04:10:50;;;;;;;2.90;2.70;;;;;;;;;;5418168;26;20230;-71
2024/04/23 04:13:19;;;;;;;3.92;3.53;;;;;;;;;;5417346;26;20232;-70
2024/04/23 04:15:49;;;;;;;4.50;3.65;;;;;;;;;;5417645;26;20256;-71
2024/04/23 04:18:18;;;;;;;3.17;2.63;;;;;;;;;;5417660;26;20328;-71
2024/04/23 04:20:47;;;;;;;2.83;2.63;;;;;;;;;;5417046;26;20333;-71
2024/04/23 04:23:13;;;;;;;4.30;3.70;;;;;;;;;;5416763;26;20279;-71
2024/04/23 04:25:42;;;;;;;3.20;2.95;;;;;;;;;;5417075;26;20356;-71
2024/04/23 04:28:08;;;;;;;2.58;2.38;;;;;;;;;;5416872;26;20232;-71
2024/04/23 04:30:37;;;;;;;2.70;2.50;;;;;;;;;;5416826;26;20237;-71
2024/04/23 04:33:03;;;;;;;3.35;2.95;;;;;;;;;;5416469;26;20270;-71
2024/04/23 04:35:34;;;;;;;4.72;3.50;;;;;;;;;;5417013;26;20765;-70
2024/04/23 04:38:00;;;;;;;3.40;3.10;;;;;;;;;;5448965;26;20235;-71
2024/04/23 04:40:29;;;;;;;2.72;2.53;;;;;;;;;;5452324;26;20231;-71
2024/04/23 04:42:56;;;;;;;3.53;2.70;;;;;;;;;;5452068;26;20227;-71
2024/04/23 04:45:25;;;;;;;4.43;3.15;;;;;;;;;;5452457;26;20595;-70
2024/04/23 04:47:51;;;;;;;3.33;3.05;;;;;;;;;;5452361;26;20232;-72
2024/04/23 04:50:22;;;;;;;3.15;2.78;;;;;;;;;;5452292;26;20273;-72
2024/04/23 04:52:51;;;;;;;3.97;3.30;;;;;;;;;;5452058;26;20277;-72
2024/04/23 04:55:19;;;;;;;3.67;3.15;;;;;;;;;;5451918;26;20882;-69
2024/04/23 04:57:46;;;;;;;2.88;2.78;;;;;;;;;;5451509;26;20738;-69
2024/04/23 05:00:15;;;;;;;3.50;3.20;;;;;;;;;;5451778;26;20231;-69
2024/04/23 05:02:41;;;;;;;3.95;3.55;;;;;;;;;;5451436;26;20284;-70
2024/04/23 05:05:10;;;;;;;13.52;4.28;;;;;;;;;;5452656;26;20231;-71
2024/04/23 05:07:36;;;;;;;4.22;3.92;;;;;;;;;;5428303;26;20792;-70
2024/04/23 05:10:08;;;;;;;3.17;2.97;;;;;;;;;;5415650;26;20638;-70
2024/04/23 05:12:35;;;;;;;2.75;2.40;;;;;;;;;;5411510;26;20614;-71
2024/04/23 05:15:04;;;;;;;3.83;3.50;;;;;;;;;;5416271;26;20278;-71
2024/04/23 05:17:30;;;;;;;4.30;3.85;;;;;;;;;;5416071;26;20266;-71
2024/04/23 05:19:59;;;;;;;4.28;3.97;;;;;;;;;;5416358;26;20345;-70
2024/04/23 05:22:25;;;;;;;3.78;3.55;;;;;;;;;;5415936;26;20269;-71
2024/04/23 05:24:54;;;;;;;3.33;2.80;;;;;;;;;;5416811;26;20346;-71
2024/04/23 05:27:23;;;;;;;3.28;3.10;;;;;;;;;;5416347;26;20257;-71
2024/04/23 05:29:54;;;;;;;3.55;3.25;;;;;;;;;;5416548;26;20233;-71
2024/04/23 05:35:08;;;;;;;3.50;3.30;;;;;;;;;;5419453;26;20694;-71
2024/04/23 05:37:37;;;;;;;3.40;3.10;;;;;;;;;;5416370;26;20598;-71
2024/04/23 05:40:07;;;;;;;4.88;3.90;;;;;;;;;;5416662;26;20233;-71
2024/04/23 05:42:38;;;;;;;6.90;4.45;;;;;;;;;;5449667;21;20308;-74
2024/04/23 05:45:07;;;;;;;4.05;2.60;;;;;;;;;;5451136;26;20259;-74
2024/04/23 05:47:55;;;;;;;4.03;3.55;;;;;;;;;;5451508;26;20232;-74
2024/04/23 05:50:40;;;;;;;3.05;2.60;;;;;;;;;;5451334;26;20228;-74
2024/04/23 05:53:27;;;;;;;3.80;3.50;;;;;;;;;;5433377;26;20279;-74
2024/04/23 05:55:56;;;;;;;4.13;3.47;;;;;;;;;;5415350;26;20225;-74
2024/04/23 05:58:24;;;;;;;3.97;3.28;;;;;;;;;;5415262;26;20275;-74
2024/04/23 06:00:54;;;;;;;3.35;2.90;;;;;;;;;;5414880;26;20228;-74
2024/04/23 06:03:23;;;;;;;5.55;4.05;;;;;;;;;;5414599;26;20240;-74
2024/04/23 06:05:49;;;;;;;5.20;4.18;;;;;;;;;;5415128;26;20759;-74
2024/04/23 06:08:18;;;;;;;4.45;4.15;;;;;;;;;;5414970;26;20233;-74
2024/04/23 06:10:44;;;;;;;4.13;3.67;;;;;;;;;;5415031;26;20230;-74
2024/04/23 06:13:13;;;;;;;5.28;4.55;;;;;;;;;;5413465;26;20252;-74
2024/04/23 06:15:42;;;;;;;4.95;4.32;;;;;;;;;;5414275;26;20292;-74
2024/04/23 06:18:10;;;;;;;4.70;4.30;;;;;;;;;;5415051;26;20313;-74
2024/04/23 06:20:37;;;;;;;5.70;4.45;;;;;;;;;;5414837;26;20226;-74
2024/04/23 06:23:05;;;;;;;4.10;3.80;;;;;;;;;;5412722;26;21146;-74
2024/04/23 06:25:32;;;;;;;4.53;4.10;;;;;;;;;;5413636;26;20288;-74
2024/04/23 06:28:00;;;;;;;3.78;3.47;;;;;;;;;;5413489;26;20234;-74
2024/04/23 06:30:27;;;;;;;5.85;4.20;;;;;;;;;;5414987;26;20231;-74
2024/04/23 06:32:58;;;;;;;4.72;4.38;;;;;;;;;;5413602;26;20755;-74
2024/04/23 06:35:24;;;;;;;4.57;4.28;;;;;;;;;;5414761;26;20227;-74
2024/04/23 06:37:53;;;;;;;3.70;3.40;;;;;;;;;;5410026;26;21474;-74
2024/04/23 06:40:19;;;;;;;4.28;3.88;;;;;;;;;;5389801;26;20278;-74
2024/04/23 06:42:48;;;;;;;3.97;3.70;;;;;;;;;;5401849;26;20350;-74
2024/04/23 06:45:14;;;;;;;2.85;2.65;;;;;;;;;;5388375;26;20236;-74
2024/04/23 06:47:43;;;;;;;3.55;3.22;;;;;;;;;;5384413;26;20625;-74
2024/04/23 06:50:14;;;;;;;4.10;3.78;;;;;;;;;;5383001;26;20279;-74
2024/04/23 06:52:41;;;;;;;3.95;3.13;;;;;;;;;;5377579;26;20240;-74
2024/04/23 06:55:09;;;;;;;2.72;2.53;;;;;;;;;;5395701;26;20335;-74
2024/04/23 06:57:38;;;;;;;3.58;3.28;;;;;;;;;;5402975;26;20807;-73
2024/04/23 07:00:07;;;;;;;3.85;3.55;;;;;;;;;;5413550;26;20270;-73
2024/04/23 07:02:33;;;;;;;4.05;3.60;;;;;;;;;;5395487;26;20236;-74
2024/04/23 07:05:02;;;;;;;3.10;2.92;;;;;;;;;;5389884;26;20661;-73
2024/04/23 07:07:30;;;;;;;4.60;2.80;;;;;;;;;;5412986;26;20242;-74
2024/04/23 07:09:59;;;;;;;3.33;3.13;;;;;;;;;;5412743;26;20347;-74
2024/04/23 07:12:25;;;;;;;3.40;3.10;;;;;;;;;;5412936;26;20293;-73
2024/04/23 07:14:54;;;;;;;5.10;3.30;;;;;;;;;;5391587;26;20311;-73
2024/04/23 07:17:20;;;;;;;3.55;3.25;;;;;;;;;;5397759;26;20243;-73
2024/04/23 07:19:49;;;;;;;4.28;3.08;;;;;;;;;;5394268;26;20278;-75
2024/04/23 07:22:15;;;;;;;4.10;3.80;;;;;;;;;;5400098;26;20247;-74
2024/04/23 07:24:47;;;;;;;4.25;3.00;;;;;;;;;;5412659;26;20854;-74
2024/04/23 07:27:13;;;;;;;3.03;2.83;;;;;;;;;;5393244;26;20290;-74
2024/04/23 07:29:42;;;;;;;3.80;3.20;;;;;;;;;;5404796;26;20231;-75
2024/04/23 07:32:12;;;;;;;3.20;2.95;;;;;;;;;;5387230;26;20240;-75
2024/04/23 07:34:41;;;;;;;3.65;3.30;;;;;;;;;;5410968;26;20239;-75
2024/04/23 07:37:12;;;;;;;4.55;3.65;;;;;;;;;;5405465;26;20288;-75
2024/04/23 07:39:38;;;;;;;3.38;3.08;;;;;;;;;;5402606;26;20757;-75
2024/04/23 07:42:09;;;;;;;3.77;3.40;;;;;;;;;;5416055;26;21102;-75
2024/04/23 07:44:36;;;;;;;3.65;3.35;;;;;;;;;;5389589;26;20526;-75
2024/04/23 07:47:04;;;;;;;3.70;3.25;;;;;;;;;;5402052;26;20582;-75
2024/04/23 07:49:31;;;;;;;3.28;3.08;;;;;;;;;;5391329;26;20239;-75
2024/04/23 07:51:59;;;;;;;3.70;3.40;;;;;;;;;;5400742;26;20240;-75
2024/04/23 07:54:26;;;;;;;3.80;3.55;;;;;;;;;;5415748;26;20241;-75
2024/04/23 07:56:54;;;;;;;4.75;3.50;;;;;;;;;;5416029;26;20285;-75
2024/04/23 07:59:23;;;;;;;3.70;3.50;;;;;;;;;;5396401;26;20231;-74
2024/04/23 08:01:52;;;;;;;3.20;3.00;;;;;;;;;;5402874;26;20326;-73
2024/04/23 08:04:21;;;;;;;3.83;3.10;;;;;;;;;;5397981;26;20294;-77
2024/04/23 08:06:47;;;;;;;4.15;3.40;;;;;;;;;;5404673;26;20685;-74
2024/04/23 08:09:16;;;;;;;3.88;3.58;;;;;;;;;;5399489;26;20286;-74
2024/04/23 08:11:42;;;;;;;3.22;3.00;;;;;;;;;;5404918;26;20231;-74
2024/04/23 08:14:11;;;;;;;4.00;3.70;;;;;;;;;;5403880;26;20249;-74
2024/04/23 08:16:40;;;;;;;3.53;3.20;;;;;;;;;;5388800;26;20691;-74
2024/04/23 08:19:09;;;;;;;3.50;3.20;;;;;;;;;;5405198;26;20691;-74
2024/04/23 08:21:36;;;;;;;2.85;2.65;;;;;;;;;;5398318;26;20466;-73
2024/04/23 08:24:05;;;;;;;3.50;3.20;;;;;;;;;;5414249;26;20245;-74
2024/04/23 08:26:32;;;;;;;3.87;3.57;;;;;;;;;;5413510;26;20788;-74
2024/04/23 08:29:01;;;;;;;5.10;2.92;;;;;;;;;;5414541;26;20473;-74
2024/04/23 08:31:27;;;;;;;3.25;2.70;;;;;;;;;;5409845;26;20244;-74
2024/04/23 08:33:59;;;;;;;3.17;2.97;;;;;;;;;;5415293;26;20576;-74
2024/04/23 08:36:25;;;;;;;4.03;3.70;;;;;;;;;;5415069;26;21103;-74
2024/04/23 08:38:54;;;;;;;2.70;2.50;;;;;;;;;;5415790;26;20730;-73
2024/04/23 08:41:23;;;;;;;2.83;2.63;;;;;;;;;;5416169;26;20267;-74
2024/04/23 08:43:55;;;;;;;4.00;2.53;;;;;;;;;;5415308;26;20280;-73
2024/04/23 08:46:22;;;;;;;5.32;3.25;;;;;;;;;;5416262;26;20474;-73
2024/04/23 08:48:51;;;;;;;2.72;2.53;;;;;;;;;;5415833;26;20232;-73
2024/04/23 08:51:20;;;;;;;3.90;3.47;;;;;;;;;;5415560;26;20229;-73
2024/04/23 08:53:50;;;;;;;2.43;2.23;;;;;;;;;;5415520;26;20540;-74
2024/04/23 08:56:22;;;;;;;2.33;2.23;;;;;;;;;;5415764;26;20467;-73
2024/04/23 08:58:51;;;;;;;3.30;3.00;;;;;;;;;;5415609;26;20993;-73
2024/04/23 09:01:22;;;;;;;2.23;2.13;;;;;;;;;;5414945;26;20515;-73
2024/04/23 09:03:53;;;;;;;3.40;3.10;;;;;;;;;;5414819;26;20500;-73
2024/04/23 09:06:22;;;;;;;2.93;2.70;;;;;;;;;;5414505;26;20618;-74
2024/04/23 09:08:51;;;;;;;2.70;2.50;;;;;;;;;;5414712;26;20482;-74
2024/04/23 09:11:18;;;;;;;3.57;3.37;;;;;;;;;;5414486;26;20538;-73
2024/04/23 09:13:46;;;;;;;2.77;2.67;;;;;;;;;;5413318;26;20479;-74
2024/04/23 09:16:13;;;;;;;3.10;2.20;;;;;;;;;;5413755;26;20467;-73
2024/04/23 09:18:41;;;;;;;3.45;2.95;;;;;;;;;;5414505;26;20513;-75
2024/04/23 09:21:08;;;;;;;2.60;2.40;;;;;;;;;;5414594;26;20279;-73
2024/04/23 09:23:39;;;;;;;3.90;2.93;;;;;;;;;;5414076;26;20559;-74
2024/04/23 09:26:06;;;;;;;6.17;5.80;;;;;;;;;;5415212;26;20811;-73
2024/04/23 09:28:36;;;;;;;2.60;2.40;;;;;;;;;;5412979;26;20476;-73
2024/04/23 09:31:02;;;;;;;2.87;2.67;;;;;;;;;;5413932;26;20600;-72
2024/04/23 09:33:32;;;;;;;2.67;2.47;;;;;;;;;;5413520;26;20476;-73
2024/04/23 09:36:04;;;;;;;3.13;2.77;;;;;;;;;;5412739;26;20480;-73
2024/04/23 09:38:39;;;;;;;4.17;3.10;;;;;;;;;;5379034;26;21164;-73
2024/04/23 09:41:06;;;;;;;5.70;2.50;;;;;;;;;;5392176;26;20468;-73
2024/04/23 09:43:36;;;;;;;2.53;2.33;;;;;;;;;;5392962;26;20539;-74
2024/04/23 09:46:02;;;;;;;3.50;2.93;;;;;;;;;;5402314;26;20472;-74
2024/04/23 09:48:31;;;;;;;2.70;2.50;;;;;;;;;;5397806;26;21103;-74
2024/04/23 09:51:01;;;;;;;2.40;2.20;;;;;;;;;;5413803;26;20464;-73
2024/04/23 09:53:32;;;;;;;2.87;2.70;;;;;;;;;;5390780;26;20852;-73
2024/04/23 09:56:02;;;;;;;4.50;2.57;;;;;;;;;;5405754;26;21065;-73
2024/04/23 09:58:31;;;;;;;2.43;2.23;;;;;;;;;;5412613;26;20468;-73
2024/04/23 10:00:57;;;;;;;2.60;2.40;;;;;;;;;;5390333;26;20476;-73
2024/04/23 10:03:27;;;;;;;2.77;2.57;;;;;;;;;;5392623;26;20490;-75
2024/04/23 10:05:55;;;;;;;2.67;2.50;;;;;;;;;;5384493;26;20809;-73
2024/04/23 10:08:28;;;;;;;2.40;2.30;;;;;;;;;;5413315;26;20476;-73
2024/04/23 10:10:54;;;;;;;3.20;3.00;;;;;;;;;;5398468;26;20469;-72
2024/04/23 10:13:29;;;;;;;2.93;2.50;;;;;;;;;;5396444;26;20483;-73
2024/04/23 10:15:56;;;;;;;3.00;2.80;;;;;;;;;;5389959;26;20816;-73
2024/04/23 10:18:34;;;;;;;3.20;3.00;;;;;;;;;;5398633;26;20469;-73
2024/04/23 10:21:01;;;;;;;2.97;2.30;;;;;;;;;;5392981;26;21093;-73
2024/04/23 10:23:30;;;;;;;2.73;2.53;;;;;;;;;;5398804;26;20592;-74
2024/04/23 10:25:57;;;;;;;3.60;3.30;;;;;;;;;;5403637;26;20540;-74
2024/04/23 10:28:29;;;;;;;3.03;2.73;;;;;;;;;;5413243;26;20908;-72
2024/04/23 10:30:56;;;;;;;2.73;2.50;;;;;;;;;;5380391;26;20481;-74
2024/04/23 10:33:30;;;;;;;3.07;2.87;;;;;;;;;;5405505;26;20519;-74
2024/04/23 10:35:57;;;;;;;3.13;2.93;;;;;;;;;;5403943;26;20845;-73
2024/04/23 10:38:27;;;;;;;2.93;2.73;;;;;;;;;;5399761;26;20528;-75
2024/04/23 10:40:54;;;;;;;3.40;3.20;;;;;;;;;;5388192;26;20473;-73
2024/04/23 10:43:23;;;;;;;3.40;3.10;;;;;;;;;;5412317;26;20488;-74
2024/04/23 10:45:52;;;;;;;10.20;2.73;;;;;;;;;;5395352;26;20837;-73
2024/04/23 10:48:27;;;;;;;3.20;2.90;;;;;;;;;;5400742;26;20514;-75
2024/04/23 10:50:54;;;;;;;3.50;3.20;;;;;;;;;;5412949;26;20796;-72
2024/04/23 10:53:23;;;;;;;2.93;2.73;;;;;;;;;;5397970;26;20525;-73
2024/04/23 10:55:50;;;;;;;3.00;2.80;;;;;;;;;;5397228;26;20525;-73
2024/04/23 10:58:19;;;;;;;3.97;3.30;;;;;;;;;;5406636;26;20468;-73
2024/04/23 11:00:45;;;;;;;3.23;3.03;;;;;;;;;;5413662;26;20480;-73
2024/04/23 11:03:20;;;;;;;3.67;3.37;;;;;;;;;;5414735;26;21002;-72
2024/04/23 11:05:47;;;;;;;4.30;4.00;;;;;;;;;;5416233;26;20456;-72
2024/04/23 11:08:24;;;;;;;4.33;3.93;;;;;;;;;;5416892;26;20464;-75
2024/04/23 11:10:50;;;;;;;3.47;3.17;;;;;;;;;;5416370;26;20530;-72
2024/04/23 11:13:29;;;;;;;3.00;2.80;;;;;;;;;;5415044;26;20472;-73
2024/04/23 11:15:56;;;;;;;3.17;2.97;;;;;;;;;;5403115;26;21164;-72
2024/04/23 11:18:27;;;;;;;3.83;3.53;;;;;;;;;;5383160;26;20472;-72
2024/04/23 11:20:55;;;;;;;3.43;3.23;;;;;;;;;;5404205;26;20523;-73
2024/04/23 11:23:24;;;;;;;3.30;3.00;;;;;;;;;;5414689;26;21135;-74
2024/04/23 11:25:50;;;;;;;3.63;3.10;;;;;;;;;;5415433;26;20584;-73
2024/04/23 11:28:19;;;;;;;3.40;2.80;;;;;;;;;;5392445;26;21058;-73
2024/04/23 11:30:51;;;;;;;2.90;2.70;;;;;;;;;;5416330;26;20464;-73
2024/04/23 11:33:20;;;;;;;4.87;3.27;;;;;;;;;;5415982;26;20476;-73
2024/04/23 11:35:52;;;;;;;3.30;3.03;;;;;;;;;;5416263;26;20507;-72
2024/04/23 11:38:21;;;;;;;3.27;3.07;;;;;;;;;;5414329;26;20520;-73
2024/04/23 11:40:47;;;;;;;3.90;3.60;;;;;;;;;;5413773;26;20544;-72
2024/04/23 11:43:18;;;;;;;3.40;3.10;;;;;;;;;;5413756;26;20544;-72
2024/04/23 11:45:46;;;;;;;3.63;3.33;;;;;;;;;;5416136;26;20456;-72
2024/04/23 11:48:15;;;;;;;3.27;3.00;;;;;;;;;;5415063;26;20461;-73
2024/04/23 11:50:42;;;;;;;2.83;2.63;;;;;;;;;;5414058;26;20459;-72
2024/04/23 11:53:13;;;;;;;2.93;2.73;;;;;;;;;;5414721;26;20527;-72
2024/04/23 11:55:40;;;;;;;3.00;2.80;;;;;;;;;;5415434;26;20507;-72
2024/04/23 11:58:09;;;;;;;3.33;2.90;;;;;;;;;;5415200;26;20469;-73
2024/04/23 12:00:37;;;;;;;3.37;3.17;;;;;;;;;;5415604;26;21046;-72
2024/04/23 12:03:06;;;;;;;3.50;3.20;;;;;;;;;;5414491;26;20533;-73
2024/04/23 12:05:33;;;;;;;3.43;3.13;;;;;;;;;;5414583;26;20473;-73
2024/04/23 12:08:03;;;;;;;3.27;3.07;;;;;;;;;;5414649;26;20473;-72
2024/04/23 12:10:32;;;;;;;2.93;2.73;;;;;;;;;;5412597;26;20525;-72
2024/04/23 12:13:02;;;;;;;3.20;3.00;;;;;;;;;;5411619;26;20527;-72
2024/04/23 12:15:30;;;;;;;2.63;2.53;;;;;;;;;;5414701;26;20998;-72
2024/04/23 12:17:58;;;;;;;3.13;2.93;;;;;;;;;;5414573;26;20535;-72
2024/04/23 12:20:25;;;;;;;3.33;3.13;;;;;;;;;;5414718;26;20474;-72
2024/04/23 12:22:54;;;;;;;2.47;2.27;;;;;;;;;;5409426;26;20481;-73
2024/04/23 12:25:21;;;;;;;2.77;2.60;;;;;;;;;;5414541;26;20531;-74
2024/04/23 12:27:55;;;;;;;3.10;2.90;;;;;;;;;;5413908;26;20470;-71
2024/04/23 12:30:21;;;;;;;3.87;3.50;;;;;;;;;;5414902;26;20468;-72
2024/04/23 12:32:53;;;;;;;2.30;2.10;;;;;;;;;;5414675;26;20951;-72
2024/04/23 12:35:20;;;;;;;2.80;2.60;;;;;;;;;;5414722;26;20539;-72
2024/04/23 12:37:49;;;;;;;2.83;2.63;;;;;;;;;;5413453;26;20476;-72
2024/04/23 12:40:16;;;;;;;2.60;2.37;;;;;;;;;;5414907;26;20517;-72
2024/04/23 12:42:45;;;;;;;3.00;2.70;;;;;;;;;;5414312;26;20477;-72
2024/04/23 12:45:14;;;;;;;5.13;2.80;;;;;;;;;;5413761;26;20475;-73
2024/04/23 12:47:43;;;;;;;3.47;2.30;;;;;;;;;;5414309;26;20496;-73
2024/04/23 12:50:12;;;;;;;2.87;2.67;;;;;;;;;;5414726;26;20527;-73
2024/04/23 12:52:41;;;;;;;3.83;2.70;;;;;;;;;;5414526;26;20491;-72
2024/04/23 12:55:07;;;;;;;2.67;2.47;;;;;;;;;;5405814;26;20528;-72
2024/04/23 12:57:36;;;;;;;2.97;2.80;;;;;;;;;;5378452;26;20474;-73
2024/04/23 13:00:02;;;;;;;4.23;3.30;;;;;;;;;;5393998;26;20480;-72
2024/04/23 13:02:34;;;;;;;2.77;2.57;;;;;;;;;;5399463;26;20585;-72
2024/04/23 13:05:00;;;;;;;2.70;2.50;;;;;;;;;;5393440;26;20476;-72
2024/04/23 13:07:28;;;;;;;5.20;3.07;;;;;;;;;;5392387;26;20481;-73
2024/04/23 13:09:55;;;;;;;2.70;2.50;;;;;;;;;;5387335;26;20521;-73
2024/04/23 13:12:23;;;;;;;2.83;2.70;;;;;;;;;;5403168;26;20592;-73
2024/04/23 13:14:50;;;;;;;2.97;2.77;;;;;;;;;;5408536;26;20468;-72
2024/04/23 13:17:18;;;;;;;3.60;2.70;;;;;;;;;;5389815;26;20481;-75
2024/04/23 13:19:47;;;;;;;2.90;2.27;;;;;;;;;;5403059;26;20480;-73
2024/04/23 13:22:16;;;;;;;2.63;2.43;;;;;;;;;;5397657;26;20478;-72
2024/04/23 13:24:42;;;;;;;3.10;2.30;;;;;;;;;;5396056;26;20548;-73
2024/04/23 13:27:11;;;;;;;4.53;2.50;;;;;;;;;;5399681;26;20469;-72
2024/04/23 13:29:38;;;;;;;2.93;2.63;;;;;;;;;;5408903;26;20482;-73
2024/04/23 13:32:08;;;;;;;2.37;2.17;;;;;;;;;;5396285;26;20925;-73
2024/04/23 13:34:34;;;;;;;3.60;3.30;;;;;;;;;;5397018;26;21130;-72
2024/04/23 13:37:06;;;;;;;2.40;2.30;;;;;;;;;;5402525;26;20583;-73
2024/04/23 13:39:32;;;;;;;2.83;2.53;;;;;;;;;;5391473;26;20489;-72
2024/04/23 13:42:01;;;;;;;2.40;2.30;;;;;;;;;;5399465;26;20970;-72
2024/04/23 13:44:29;;;;;;;2.37;2.20;;;;;;;;;;5396762;26;20828;-73
2024/04/23 13:46:57;;;;;;;2.10;2.00;;;;;;;;;;5390204;26;20546;-73
2024/04/23 13:49:24;;;;;;;2.60;2.40;;;;;;;;;;5406798;26;20470;-72
2024/04/23 13:51:52;;;;;;;2.50;2.40;;;;;;;;;;5410799;26;21131;-73
2024/04/23 13:54:21;;;;;;;2.17;2.07;;;;;;;;;;5453048;21;20545;-72
2024/04/23 13:56:50;;;;;;;2.83;2.03;;;;;;;;;;5464206;26;20477;-73
2024/04/23 13:59:18;;;;;;;2.50;2.20;;;;;;;;;;5466247;26;20474;-73
2024/04/23 14:01:46;;;;;;;2.07;1.97;;;;;;;;;;5464571;26;20541;-73
2024/04/23 14:04:13;;;;;;;2.30;2.10;;;;;;;;;;5454153;26;20530;-72
2024/04/23 14:06:41;;;;;;;2.77;2.57;;;;;;;;;;5435920;26;20575;-71
2024/04/23 14:09:08;;;;;;;2.53;2.33;;;;;;;;;;5434598;26;20526;-73
2024/04/23 14:11:39;;;;;;;2.13;2.03;;;;;;;;;;5432488;26;20471;-73
2024/04/23 14:14:06;;;;;;;1.97;1.87;;;;;;;;;;5426128;26;20465;-72
2024/04/23 14:16:34;;;;;;;2.17;1.97;;;;;;;;;;5420962;26;20472;-73
2024/04/23 14:19:01;;;;;;;3.73;2.23;;;;;;;;;;5441874;26;20455;-73
2024/04/23 14:21:29;;;;;;;2.37;1.73;;;;;;;;;;5435445;26;20464;-73
2024/04/23 14:23:56;;;;;;;2.50;2.03;;;;;;;;;;5427632;26;20472;-73
2024/04/23 14:26:25;;;;;;;1.60;1.50;;;;;;;;;;5445551;26;20594;-73
2024/04/23 14:28:54;;;;;;;1.50;1.40;;;;;;;;;;5424846;26;20471;-73
2024/04/23 14:31:23;;;;;;;1.80;1.70;;;;;;;;;;5435560;26;20544;-73
2024/04/23 14:33:49;;;;;;;1.70;1.53;;;;;;;;;;5438169;26;20468;-73
2024/04/23 14:36:18;;;;;;;1.93;1.70;;;;;;;;;;5421048;26;21187;-72
2024/04/23 14:38:45;;;;;;;1.63;1.53;;;;;;;;;;5444910;26;20464;-72
2024/04/23 14:41:14;;;;;;;4.00;1.80;;;;;;;;;;5439188;26;21069;-73
2024/04/23 14:43:40;;;;;;;2.03;1.90;;;;;;;;;;5425181;26;20530;-73
2024/04/23 14:46:15;;;;;;;2.10;2.00;;;;;;;;;;5415365;26;20504;-73
2024/04/23 14:48:41;;;;;;;1.60;1.50;;;;;;;;;;5422519;26;20521;-73
2024/04/23 14:51:11;;;;;;;1.93;1.73;;;;;;;;;;5433257;26;20482;-72
2024/04/23 14:53:38;;;;;;;2.00;1.90;;;;;;;;;;5436327;26;20520;-73
2024/04/23 14:56:07;;;;;;;1.60;1.50;;;;;;;;;;5424872;26;20833;-72
2024/04/23 14:58:34;;;;;;;1.80;1.70;;;;;;;;;;5444370;26;20526;-73